createdAt,value
2019-02-22T00:00:39.840Z,1.6
2019-02-22T00:01:49.406Z,1.3
2019-02-22T00:02:58.920Z,1.5
2019-02-22T00:04:08.444Z,1.6
2019-02-22T00:05:17.974Z,1.9
2019-02-22T00:06:27.485Z,1.8
2019-02-22T00:07:37.009Z,1.2
2019-02-22T00:08:46.526Z,1.6
2019-02-22T00:09:56.053Z,1.5
2019-02-22T00:11:05.554Z,1.7
2019-02-22T00:12:15.090Z,1.6
2019-02-22T00:13:24.607Z,1.4
2019-02-22T00:14:34.132Z,1.6
2019-02-22T00:15:43.635Z,1.7
2019-02-22T00:16:53.161Z,2.1
2019-02-22T00:18:02.676Z,1.5
2019-02-22T00:19:12.180Z,1.7
2019-02-22T00:20:21.684Z,1.9
2019-02-22T00:21:31.207Z,1.4
2019-02-22T00:22:40.737Z,1.6
2019-02-22T00:23:50.246Z,1.3
2019-02-22T00:24:59.756Z,1.6
2019-02-22T00:26:11.111Z,1.4
2019-02-22T00:27:19.774Z,1.6
2019-02-22T00:28:29.281Z,1.6
2019-02-22T00:29:38.781Z,1.6
2019-02-22T00:30:48.282Z,1.8
2019-02-22T00:31:57.825Z,1.4
2019-02-22T00:33:07.338Z,1.5
2019-02-22T00:34:16.940Z,1.5
2019-02-22T00:35:26.467Z,2
2019-02-22T00:36:35.948Z,1.7
2019-02-22T00:37:45.469Z,1.5
2019-02-22T00:38:54.980Z,1.3
2019-02-22T00:40:04.507Z,1.3
2019-02-22T00:41:14.041Z,1.7
2019-02-22T00:42:23.585Z,1.5
2019-02-22T00:43:33.110Z,1.4
2019-02-22T00:44:42.632Z,1.8
2019-02-22T00:45:52.130Z,1.3
2019-02-22T00:47:01.650Z,1.6
2019-02-22T00:48:11.158Z,1.2
2019-02-22T00:49:20.671Z,1.6
2019-02-22T00:50:30.183Z,1.3
2019-02-22T00:51:39.685Z,1.3
2019-02-22T00:52:49.305Z,1.6
2019-02-22T00:53:58.910Z,1.5
2019-02-22T00:55:08.531Z,1.9
2019-02-22T00:56:18.110Z,1.2
2019-02-22T00:57:27.704Z,1.3
2019-02-22T00:58:37.269Z,1.7
2019-02-22T00:59:46.839Z,1.9
2019-02-22T01:00:56.365Z,1.7
2019-02-22T01:02:05.890Z,1.7
2019-02-22T01:03:15.407Z,1.9
2019-02-22T01:04:24.933Z,1.6
2019-02-22T01:05:34.458Z,1.8
2019-02-22T01:06:43.959Z,1.8
2019-02-22T01:07:53.491Z,2
2019-02-22T01:09:03.006Z,2
2019-02-22T01:10:12.511Z,1.9
2019-02-22T01:11:22.029Z,1.5
2019-02-22T01:12:31.551Z,1.3
2019-02-22T01:13:41.084Z,1.2
2019-02-22T01:14:50.595Z,1.6
2019-02-22T01:16:00.118Z,1.6
2019-02-22T01:17:09.646Z,1.5
2019-02-22T01:18:19.174Z,1.6
2019-02-22T01:19:28.714Z,1.1
2019-02-22T01:20:38.237Z,1.7
2019-02-22T01:21:47.752Z,1.8
2019-02-22T01:22:57.298Z,1.4
2019-02-22T01:24:06.823Z,1.8
2019-02-22T01:25:16.390Z,2.3
2019-02-22T01:26:25.871Z,2
2019-02-22T01:27:35.423Z,2.4
2019-02-22T01:28:44.963Z,1.7
2019-02-22T01:29:54.546Z,1.6
2019-02-22T01:31:04.050Z,1.4
2019-02-22T01:32:13.565Z,2.3
2019-02-22T01:33:23.105Z,2
2019-02-22T01:34:32.627Z,2.2
2019-02-22T01:35:42.146Z,1.7
2019-02-22T01:36:51.648Z,1.7
2019-02-22T01:38:01.188Z,1.5
2019-02-22T01:39:10.688Z,2.1
2019-02-22T01:40:20.218Z,1.9
2019-02-22T01:41:29.746Z,1.8
2019-02-22T01:42:39.287Z,1.8
2019-02-22T01:43:48.804Z,1.9
2019-02-22T01:44:58.312Z,1.9
2019-02-22T01:46:07.815Z,1.4
2019-02-22T01:47:17.311Z,1.8
2019-02-22T01:48:26.850Z,1.9
2019-02-22T01:49:36.366Z,2.1
2019-02-22T01:50:46.866Z,1.6
2019-02-22T01:51:56.390Z,1.5
2019-02-22T01:53:05.913Z,1.8
2019-02-22T01:54:15.428Z,1.4
2019-02-22T01:55:24.947Z,1.7
2019-02-22T01:56:34.454Z,1.9
2019-02-22T01:57:43.995Z,2.2
2019-02-22T01:58:53.511Z,1.8
2019-02-22T02:00:03.051Z,1.5
2019-02-22T02:01:12.585Z,1.3
2019-02-22T02:02:22.108Z,2.2
2019-02-22T02:03:31.643Z,1.6
2019-02-22T02:04:41.169Z,1.3
2019-02-22T02:05:50.689Z,1.8
2019-02-22T02:07:00.210Z,1.9
2019-02-22T02:08:09.735Z,1.5
2019-02-22T02:09:19.244Z,1.6
2019-02-22T02:10:28.768Z,2.3
2019-02-22T02:11:38.272Z,1.9
2019-02-22T02:12:47.804Z,2.1
2019-02-22T02:13:57.306Z,1.3
2019-02-22T02:15:06.820Z,1.4
2019-02-22T02:16:16.339Z,1.9
2019-02-22T02:17:25.842Z,1
2019-02-22T02:18:35.383Z,1.3
2019-02-22T02:19:44.909Z,1.3
2019-02-22T02:20:54.505Z,1.8
2019-02-22T02:22:03.994Z,2.1
2019-02-22T02:23:13.510Z,1.5
2019-02-22T02:24:23.019Z,1.5
2019-02-22T02:25:32.533Z,1.4
2019-02-22T02:26:42.052Z,1.1
2019-02-22T02:27:52.598Z,1.7
2019-02-22T02:29:02.126Z,1.5
2019-02-22T02:30:11.632Z,1.9
2019-02-22T02:31:21.135Z,1.2
2019-02-22T02:32:30.645Z,1.3
2019-02-22T02:33:40.168Z,1.4
2019-02-22T02:34:49.677Z,1.3
2019-02-22T02:35:59.197Z,1.2
2019-02-22T02:37:08.705Z,1.4
2019-02-22T02:38:18.241Z,1.5
2019-02-22T02:39:27.762Z,1.7
2019-02-22T02:40:37.267Z,1.4
2019-02-22T02:41:46.779Z,1.5
2019-02-22T02:42:56.307Z,1.5
2019-02-22T02:44:05.814Z,1.5
2019-02-22T02:45:15.346Z,1.9
2019-02-22T02:46:24.876Z,1.7
2019-02-22T02:47:34.396Z,2.3
2019-02-22T02:48:43.927Z,1.7
2019-02-22T02:49:53.460Z,1.5
2019-02-22T02:51:02.977Z,1.9
2019-02-22T02:52:12.502Z,1.8
2019-02-22T02:53:22.030Z,1.2
2019-02-22T02:54:31.591Z,1.8
2019-02-22T02:55:41.108Z,1.6
2019-02-22T02:56:50.629Z,1.6
2019-02-22T02:58:00.159Z,1.7
2019-02-22T02:59:09.702Z,1.7
2019-02-22T03:00:19.217Z,1.8
2019-02-22T03:01:28.743Z,1.5
2019-02-22T03:02:38.277Z,1.9
2019-02-22T03:03:47.806Z,1.8
2019-02-22T03:04:57.316Z,1.6
2019-02-22T03:06:06.827Z,1.9
2019-02-22T03:07:16.353Z,2.2
2019-02-22T03:08:25.881Z,1.9
2019-02-22T03:09:35.396Z,2.3
2019-02-22T03:10:44.946Z,1.9
2019-02-22T03:11:54.444Z,1.5
2019-02-22T03:13:04.928Z,1.9
2019-02-22T03:14:14.440Z,1.4
2019-02-22T03:15:23.956Z,2.1
2019-02-22T03:16:34.458Z,2.2
2019-02-22T03:17:43.973Z,2
2019-02-22T03:18:53.503Z,2.5
2019-02-22T03:20:03.023Z,2.2
2019-02-22T03:21:12.576Z,1.6
2019-02-22T03:22:22.089Z,1.7
2019-02-22T03:23:31.619Z,2
2019-02-22T03:24:41.127Z,2.4
2019-02-22T03:25:50.650Z,2
2019-02-22T03:27:01.175Z,2.1
2019-02-22T03:28:10.685Z,2.2
2019-02-22T03:29:20.228Z,2
2019-02-22T03:30:29.744Z,1.7
2019-02-22T03:31:39.280Z,2.1
2019-02-22T03:32:48.793Z,2
2019-02-22T03:33:58.330Z,1.9
2019-02-22T03:35:07.836Z,2.5
2019-02-22T03:36:17.365Z,2.1
2019-02-22T03:37:26.878Z,2.2
2019-02-22T03:38:36.439Z,2.4
2019-02-22T03:39:45.943Z,1.9
2019-02-22T03:40:55.461Z,1.8
2019-02-22T03:42:04.991Z,2.7
2019-02-22T03:43:14.515Z,1.8
2019-02-22T03:44:24.046Z,1.8
2019-02-22T03:45:33.549Z,1.6
2019-02-22T03:46:43.062Z,2.2
2019-02-22T03:47:52.583Z,2.3
2019-02-22T03:49:02.094Z,1.8
2019-02-22T03:50:11.664Z,1.8
2019-02-22T03:51:21.173Z,1.8
2019-02-22T03:52:30.688Z,2.4
2019-02-22T03:53:40.201Z,2.2
2019-02-22T03:54:49.724Z,2.9
2019-02-22T03:55:59.257Z,1.9
2019-02-22T03:57:08.774Z,2.1
2019-02-22T03:58:18.293Z,1.4
2019-02-22T03:59:27.849Z,1.8
2019-02-22T04:00:38.356Z,1.8
2019-02-22T04:01:47.872Z,2.2
2019-02-22T04:02:57.394Z,2.2
2019-02-22T04:06:29.185Z,2
2019-02-22T04:07:38.711Z,2.2
2019-02-22T04:08:48.215Z,2.2
2019-02-22T04:09:57.817Z,2.2
2019-02-22T04:11:07.333Z,2.7
2019-02-22T04:12:16.934Z,2
2019-02-22T04:13:26.444Z,1.3
2019-02-22T04:14:35.985Z,1.9
2019-02-22T04:15:45.518Z,2.5
2019-02-22T04:16:55.023Z,2
2019-02-22T04:18:04.534Z,1.8
2019-02-22T04:19:14.058Z,1.8
2019-02-22T04:20:23.574Z,2
2019-02-22T04:21:33.081Z,2.1
2019-02-22T04:22:44.332Z,2.1
2019-02-22T04:23:53.092Z,1.4
2019-02-22T04:25:02.631Z,1.8
2019-02-22T04:26:12.144Z,1.9
2019-02-22T04:27:21.652Z,1.7
2019-02-22T04:28:31.163Z,1.7
2019-02-22T04:29:40.698Z,1.4
2019-02-22T04:30:50.215Z,2.3
2019-02-22T04:31:59.716Z,2
2019-02-22T04:33:09.220Z,2.1
2019-02-22T04:34:18.761Z,2.1
2019-02-22T04:35:28.259Z,1.4
2019-02-22T04:36:37.757Z,1.8
2019-02-22T04:37:47.262Z,1.8
2019-02-22T04:38:56.788Z,2.2
2019-02-22T04:40:06.310Z,1.5
2019-02-22T04:41:15.817Z,1.9
2019-02-22T04:42:25.327Z,1.6
2019-02-22T04:43:34.849Z,1.6
2019-02-22T04:44:44.368Z,1.7
2019-02-22T04:45:53.881Z,1.6
2019-02-22T04:47:03.390Z,2.1
2019-02-22T04:48:12.926Z,1.9
2019-02-22T04:49:22.440Z,1.8
2019-02-22T04:50:31.949Z,1.2
2019-02-22T04:51:41.469Z,1.4
2019-02-22T04:52:50.975Z,1.7
2019-02-22T04:54:00.487Z,1.8
2019-02-22T04:55:10.008Z,1.9
2019-02-22T04:56:19.527Z,1.6
2019-02-22T04:57:29.039Z,2.2
2019-02-22T04:58:38.564Z,2.3
2019-02-22T04:59:48.095Z,1.6
2019-02-22T05:00:57.612Z,1.9
2019-02-22T05:02:07.126Z,2.1
2019-02-22T05:03:16.651Z,1.7
2019-02-22T05:04:26.200Z,1.7
2019-02-22T05:05:35.704Z,1.7
2019-02-22T05:06:45.216Z,1.1
2019-02-22T05:07:54.727Z,2
2019-02-22T05:09:04.243Z,1.7
2019-02-22T05:10:13.766Z,1.9
2019-02-22T05:11:23.269Z,1.4
2019-02-22T05:12:32.764Z,1.4
2019-02-22T05:13:42.285Z,2
2019-02-22T05:14:51.810Z,1.7
2019-02-22T05:16:01.311Z,1.3
2019-02-22T05:17:10.828Z,1.8
2019-02-22T05:18:20.340Z,1.8
2019-02-22T05:19:29.859Z,1.5
2019-02-22T05:20:39.385Z,1.9
2019-02-22T05:21:48.893Z,1.6
2019-02-22T05:23:03.547Z,2
2019-02-22T05:24:08.897Z,1.6
2019-02-22T05:25:18.418Z,1.9
2019-02-22T05:26:27.916Z,2
2019-02-22T05:27:37.426Z,2.1
2019-02-22T05:28:46.962Z,2.2
2019-02-22T05:29:56.660Z,1.6
2019-02-22T05:31:06.074Z,2.1
2019-02-22T05:32:15.582Z,1.7
2019-02-22T05:33:25.089Z,1.3
2019-02-22T05:34:34.626Z,1.8
2019-02-22T05:35:44.126Z,1.9
2019-02-22T05:36:53.621Z,2
2019-02-22T05:38:03.136Z,2
2019-02-22T05:39:18.800Z,2.4
2019-02-22T05:40:23.182Z,1.8
2019-02-22T05:41:32.702Z,2
2019-02-22T05:42:42.299Z,1.6
2019-02-22T05:43:51.809Z,2
2019-02-22T05:45:01.366Z,2.5
2019-02-22T05:46:10.877Z,1.9
2019-02-22T05:47:20.389Z,2.6
2019-02-22T05:48:29.903Z,2.3
2019-02-22T05:49:39.410Z,2.4
2019-02-22T05:50:48.946Z,1.5
2019-02-22T05:51:58.499Z,2
2019-02-22T05:53:08.055Z,1.6
2019-02-22T05:54:17.556Z,1.7
2019-02-22T05:55:27.086Z,2.4
2019-02-22T05:56:36.609Z,2.2
2019-02-22T05:57:46.133Z,2.7
2019-02-22T05:58:55.647Z,1.6
2019-02-22T06:00:05.176Z,2.4
2019-02-22T06:01:14.682Z,1.6
2019-02-22T06:02:24.199Z,2
2019-02-22T06:03:33.737Z,2
2019-02-22T06:04:43.259Z,2.2
2019-02-22T06:05:52.781Z,2.6
2019-02-22T06:07:02.295Z,2
2019-02-22T06:08:11.814Z,1.6
2019-02-22T06:09:21.324Z,2.5
2019-02-22T06:10:30.852Z,2
2019-02-22T06:11:40.405Z,2.6
2019-02-22T06:12:49.912Z,2
2019-02-22T06:13:59.424Z,1.6
2019-02-22T06:15:08.961Z,2.3
2019-02-22T06:16:18.463Z,1.8
2019-02-22T06:17:28.008Z,1.9
2019-02-22T06:18:37.519Z,2
2019-02-22T06:19:47.047Z,1.6
2019-02-22T06:20:56.601Z,1.7
2019-02-22T06:22:06.111Z,2
2019-02-22T06:23:15.634Z,1.8
2019-02-22T06:24:25.160Z,2.1
2019-02-22T06:25:34.692Z,2.1
2019-02-22T06:26:44.203Z,2
2019-02-22T06:27:53.700Z,2.4
2019-02-22T06:29:03.206Z,2
2019-02-22T06:30:12.718Z,1.9
2019-02-22T06:31:22.264Z,2.2
2019-02-22T06:32:31.757Z,1.6
2019-02-22T06:33:41.260Z,2.3
2019-02-22T06:34:50.771Z,2
2019-02-22T06:36:00.295Z,2
2019-02-22T06:37:09.806Z,2.8
2019-02-22T06:38:19.372Z,2
2019-02-22T06:39:28.859Z,2.7
2019-02-22T06:40:38.395Z,2
2019-02-22T06:41:47.895Z,2.8
2019-02-22T06:42:57.399Z,2
2019-02-22T06:44:06.968Z,2
2019-02-22T06:45:16.481Z,2.4
2019-02-22T06:46:26.043Z,2.1
2019-02-22T06:47:35.546Z,1.9
2019-02-22T06:48:45.052Z,2.4
2019-02-22T06:49:54.558Z,1.9
2019-02-22T06:51:04.078Z,2
2019-02-22T06:52:13.592Z,1.7
2019-02-22T06:53:23.094Z,2.1
2019-02-22T06:54:32.615Z,2.1
2019-02-22T06:55:42.220Z,2.1
2019-02-22T06:56:51.733Z,1.4
2019-02-22T06:58:01.250Z,2
2019-02-22T06:59:10.761Z,2.1
2019-02-22T07:00:20.274Z,1.9
2019-02-22T07:01:29.835Z,1.9
2019-02-22T07:02:39.361Z,2.2
2019-02-22T07:03:48.874Z,1.6
2019-02-22T07:04:58.363Z,2
2019-02-22T07:06:07.871Z,1.8
2019-02-22T07:07:17.404Z,1.7
2019-02-22T07:08:26.906Z,1.8
2019-02-22T07:09:36.426Z,2.1
2019-02-22T07:10:45.939Z,2.2
2019-02-22T07:11:55.478Z,1.6
2019-02-22T07:13:04.985Z,1.9
2019-02-22T07:14:14.492Z,1.9
2019-02-22T07:15:24.013Z,2.1
2019-02-22T07:16:33.530Z,2.6
2019-02-22T07:17:43.035Z,2
2019-02-22T07:18:53.526Z,1.9
2019-02-22T07:20:03.064Z,2.1
2019-02-22T07:21:12.577Z,2.1
2019-02-22T07:22:22.079Z,1.9
2019-02-22T07:23:32.578Z,1.6
2019-02-22T07:24:42.107Z,1.4
2019-02-22T07:25:51.594Z,2
2019-02-22T07:27:01.124Z,1.5
2019-02-22T07:28:11.676Z,1.8
2019-02-22T07:29:22.184Z,1.8
2019-02-22T07:30:31.659Z,2.2
2019-02-22T07:31:42.173Z,2.1
2019-02-22T07:32:51.770Z,1.8
2019-02-22T07:34:01.276Z,1.8
2019-02-22T07:35:10.770Z,1.7
2019-02-22T07:36:20.354Z,1.7
2019-02-22T07:37:29.845Z,2.2
2019-02-22T07:38:39.353Z,1.6
2019-02-22T07:39:48.866Z,2
2019-02-22T07:40:58.372Z,1.8
2019-02-22T07:42:07.899Z,1.5
2019-02-22T07:43:17.403Z,1.2
2019-02-22T07:44:26.915Z,2
2019-02-22T07:45:36.409Z,1.8
2019-02-22T07:46:45.930Z,1.7
2019-02-22T07:47:55.448Z,1.8
2019-02-22T07:49:04.959Z,1.4
2019-02-22T07:50:14.475Z,1.9
2019-02-22T07:51:23.999Z,1.9
2019-02-22T07:52:33.508Z,1.9
2019-02-22T07:53:43.015Z,1.8
2019-02-22T07:54:52.529Z,1.5
2019-02-22T07:56:02.073Z,1.5
2019-02-22T07:57:11.591Z,1.9
2019-02-22T07:58:21.106Z,1.6
2019-02-22T07:59:30.610Z,1.9
2019-02-22T08:00:40.119Z,1.6
2019-02-22T08:01:49.641Z,1.3
2019-02-22T08:02:59.136Z,1.5
2019-02-22T08:04:08.662Z,1.4
2019-02-22T08:05:18.158Z,1.9
2019-02-22T08:06:27.700Z,2.2
2019-02-22T08:07:37.203Z,1.7
2019-02-22T08:08:47.906Z,1.9
2019-02-22T08:09:57.238Z,2
2019-02-22T08:11:06.767Z,1.7
2019-02-22T08:12:16.315Z,1.7
2019-02-22T08:13:25.829Z,2.4
2019-02-22T08:14:35.360Z,1.5
2019-02-22T08:15:44.908Z,1.8
2019-02-22T08:16:54.432Z,1.4
2019-02-22T08:18:03.955Z,2
2019-02-22T08:19:13.476Z,1.9
2019-02-22T08:20:22.998Z,1.7
2019-02-22T08:21:32.515Z,1.6
2019-02-22T08:22:42.056Z,1.3
2019-02-22T08:23:51.582Z,1.7
2019-02-22T08:25:02.105Z,1.3
2019-02-22T08:26:11.621Z,1.9
2019-02-22T08:27:21.161Z,1.4
2019-02-22T08:28:30.666Z,1.6
2019-02-22T08:29:40.188Z,1.6
2019-02-22T08:30:49.708Z,1.4
2019-02-22T08:31:59.230Z,1.9
2019-02-22T08:33:08.763Z,1.6
2019-02-22T08:34:18.281Z,1.8
2019-02-22T08:35:27.777Z,1.5
2019-02-22T08:36:37.284Z,1.4
2019-02-22T08:37:47.077Z,1.5
2019-02-22T08:38:56.315Z,1.9
2019-02-22T08:40:05.815Z,1.8
2019-02-22T08:41:15.317Z,1.7
2019-02-22T08:42:24.858Z,2.2
2019-02-22T08:43:34.351Z,1.7
2019-02-22T08:44:43.859Z,1.8
2019-02-22T08:45:53.369Z,1.7
2019-02-22T08:47:02.907Z,1.9
2019-02-22T08:48:12.419Z,1.2
2019-02-22T08:49:21.924Z,1.6
2019-02-22T08:50:31.432Z,1.3
2019-02-22T08:51:40.936Z,1.4
2019-02-22T08:52:50.457Z,1.6
2019-02-22T08:53:59.960Z,2
2019-02-22T08:55:09.466Z,1.3
2019-02-22T08:56:18.975Z,1.9
2019-02-22T08:57:28.499Z,1.3
2019-02-22T08:58:38.010Z,1.5
2019-02-22T08:59:47.533Z,1.5
2019-02-22T09:00:57.044Z,1.5
2019-02-22T09:02:06.589Z,1.5
2019-02-22T09:03:16.093Z,1.4
2019-02-22T09:04:25.595Z,1.7
2019-02-22T09:05:35.102Z,1.4
2019-02-22T09:06:44.609Z,1.5
2019-02-22T09:07:55.123Z,1.5
2019-02-22T09:09:04.632Z,1.3
2019-02-22T09:10:14.174Z,1.7
2019-02-22T09:11:23.674Z,2
2019-02-22T09:12:33.205Z,1.7
2019-02-22T09:13:43.753Z,1.8
2019-02-22T09:14:53.182Z,1.8
2019-02-22T09:16:02.690Z,1.6
2019-02-22T09:17:12.197Z,1.7
2019-02-22T09:18:21.718Z,1.9
2019-02-22T09:19:31.230Z,1.7
2019-02-22T09:20:40.732Z,1.2
2019-02-22T09:21:50.236Z,1.5
2019-02-22T09:22:59.745Z,1.6
2019-02-22T09:24:09.268Z,1.5
2019-02-22T09:25:18.770Z,1.8
2019-02-22T09:26:28.282Z,2.3
2019-02-22T09:27:37.817Z,1.5
2019-02-22T09:28:47.322Z,1.8
2019-02-22T09:29:58.997Z,1.9
2019-02-22T09:31:07.305Z,1.7
2019-02-22T09:32:16.812Z,2.3
2019-02-22T09:33:26.340Z,2.4
2019-02-22T09:34:35.852Z,2.1
2019-02-22T09:35:45.356Z,1.7
2019-02-22T09:36:54.864Z,2
2019-02-22T09:38:04.388Z,1.6
2019-02-22T09:39:13.887Z,1.5
2019-02-22T09:40:23.398Z,2
2019-02-22T09:41:32.915Z,2.1
2019-02-22T09:42:42.432Z,1.7
2019-02-22T09:43:54.851Z,1.8
2019-02-22T09:45:02.415Z,1.4
2019-02-22T09:46:11.918Z,2.2
2019-02-22T09:47:21.430Z,1.9
2019-02-22T09:48:30.952Z,1.7
2019-02-22T09:49:40.462Z,2.3
2019-02-22T09:50:49.977Z,1.7
2019-02-22T09:51:59.479Z,1.3
2019-02-22T09:53:09.030Z,2.3
2019-02-22T09:54:18.540Z,1.7
2019-02-22T09:55:28.053Z,2.2
2019-02-22T09:56:37.559Z,1.5
2019-02-22T09:57:47.077Z,1.6
2019-02-22T09:58:56.595Z,1.2
2019-02-22T10:00:06.100Z,1.6
2019-02-22T10:01:15.605Z,1.8
2019-02-22T10:02:25.114Z,2.1
2019-02-22T10:03:34.640Z,1.6
2019-02-22T10:04:54.166Z,1.7
2019-02-22T10:05:54.641Z,1.8
2019-02-22T10:07:04.157Z,1.4
2019-02-22T10:08:13.682Z,1.6
2019-02-22T10:09:23.193Z,2
2019-02-22T10:10:32.710Z,1.7
2019-02-22T10:11:42.222Z,1.5
2019-02-22T10:12:51.748Z,1.7
2019-02-22T10:14:06.472Z,2
2019-02-22T10:15:11.771Z,1.3
2019-02-22T10:16:21.271Z,1.5
2019-02-22T10:17:30.791Z,1.6
2019-02-22T10:18:40.313Z,1.5
2019-02-22T10:19:49.825Z,1.4
2019-02-22T10:20:59.326Z,2
2019-02-22T10:22:08.836Z,1.5
2019-02-22T10:23:18.344Z,2
2019-02-22T10:24:27.873Z,1.8
2019-02-22T10:25:37.384Z,1.5
2019-02-22T10:26:46.904Z,1.7
2019-02-22T10:27:56.416Z,2.1
2019-02-22T10:29:05.944Z,2
2019-02-22T10:30:15.453Z,1.4
2019-02-22T10:31:24.960Z,2.2
2019-02-22T10:32:34.505Z,1.9
2019-02-22T10:33:44.024Z,1.9
2019-02-22T10:34:53.545Z,1.5
2019-02-22T10:36:03.051Z,1.7
2019-02-22T10:37:12.567Z,1.9
2019-02-22T10:38:22.104Z,1.8
2019-02-22T10:39:31.627Z,2
2019-02-22T10:40:41.134Z,1.7
2019-02-22T10:41:50.645Z,1.8
2019-02-22T10:43:00.150Z,2.2
2019-02-22T10:44:17.342Z,1.6
2019-02-22T10:45:20.172Z,1.7
2019-02-22T10:46:29.667Z,2
2019-02-22T10:47:39.183Z,1.5
2019-02-22T10:48:48.707Z,2
2019-02-22T10:49:58.223Z,1.8
2019-02-22T10:51:07.730Z,2
2019-02-22T10:52:17.237Z,1.9
2019-02-22T10:53:26.790Z,2
2019-02-22T10:54:36.296Z,2.1
2019-02-22T10:55:45.806Z,1.9
2019-02-22T10:56:55.368Z,2
2019-02-22T10:58:04.886Z,1.9
2019-02-22T10:59:14.405Z,1.4
2019-02-22T11:00:23.917Z,2.2
2019-02-22T11:01:33.427Z,2.3
2019-02-22T11:02:43.020Z,1.5
2019-02-22T11:03:52.558Z,2
2019-02-22T11:05:02.062Z,1.5
2019-02-22T11:06:11.581Z,1.7
2019-02-22T11:07:21.082Z,1.5
2019-02-22T11:08:30.594Z,2.3
2019-02-22T11:09:40.169Z,1.9
2019-02-22T11:10:49.687Z,1.8
2019-02-22T11:11:59.215Z,2
2019-02-22T11:13:08.723Z,1.4
2019-02-22T11:14:28.376Z,1.6
2019-02-22T11:15:28.777Z,1.6
2019-02-22T11:16:38.325Z,1.8
2019-02-22T11:17:47.826Z,1.9
2019-02-22T11:18:57.376Z,1.7
2019-02-22T11:20:06.884Z,1.3
2019-02-22T11:21:16.437Z,1.4
2019-02-22T11:22:25.945Z,1.2
2019-02-22T11:23:35.459Z,2
2019-02-22T11:24:44.980Z,1.4
2019-02-22T11:25:54.493Z,1.7
2019-02-22T11:27:04.016Z,1.5
2019-02-22T11:28:13.526Z,2.5
2019-02-22T11:29:23.043Z,1.6
2019-02-22T11:30:32.576Z,1.4
2019-02-22T11:31:42.109Z,1.4
2019-02-22T11:32:51.638Z,1.2
2019-02-22T11:34:01.186Z,1.6
2019-02-22T11:35:09.695Z,1.3
2019-02-22T11:36:19.208Z,1.6
2019-02-22T11:37:28.732Z,1.4
2019-02-22T11:38:38.228Z,1.8
2019-02-22T11:39:47.758Z,1.7
2019-02-22T11:40:57.272Z,1.6
2019-02-22T11:42:06.865Z,1.7
2019-02-22T11:43:16.382Z,1.9
2019-02-22T11:44:25.912Z,2.1
2019-02-22T11:45:35.424Z,1.5
2019-02-22T11:46:44.930Z,1.6
2019-02-22T11:47:54.436Z,1.2
2019-02-22T11:49:03.954Z,1.4
2019-02-22T11:50:14.462Z,1.5
2019-02-22T11:51:25.245Z,1.5
2019-02-22T11:52:34.751Z,1.4
2019-02-22T11:53:44.294Z,1.8
2019-02-22T11:54:53.853Z,1.4
2019-02-22T11:56:03.366Z,1.7
2019-02-22T11:57:12.908Z,1.6
2019-02-22T11:58:22.453Z,1.5
2019-02-22T11:59:32.009Z,1.3
2019-02-22T12:00:41.538Z,1.8
2019-02-22T12:01:51.044Z,1.2
2019-02-22T12:03:10.958Z,1.3
2019-02-22T12:04:11.071Z,1.6
2019-02-22T12:05:20.597Z,1.9
2019-02-22T12:06:30.110Z,1.6
2019-02-22T12:07:39.614Z,1.4
2019-02-22T12:08:49.139Z,1.7
2019-02-22T12:09:58.669Z,1.3
2019-02-22T12:11:08.184Z,1.8
2019-02-22T12:12:17.723Z,1.7
2019-02-22T12:13:27.242Z,1.4
2019-02-22T12:14:36.763Z,1.4
2019-02-22T12:15:46.284Z,1.5
2019-02-22T12:16:55.811Z,1.6
2019-02-22T12:18:05.346Z,1.6
2019-02-22T12:19:14.862Z,1.3
2019-02-22T12:20:24.388Z,1.5
2019-02-22T12:21:33.911Z,1.3
2019-02-22T12:22:43.413Z,1.3
2019-02-22T12:23:53.091Z,1.6
2019-02-22T12:25:02.438Z,1.7
2019-02-22T12:26:11.998Z,1.4
2019-02-22T12:27:21.516Z,1.1
2019-02-22T12:28:31.041Z,1.7
2019-02-22T12:29:40.554Z,1.5
2019-02-22T12:30:50.067Z,1.2
2019-02-22T12:31:59.576Z,1.1
2019-02-22T12:33:09.106Z,1.4
2019-02-22T12:34:18.644Z,1.4
2019-02-22T12:35:28.163Z,1.2
2019-02-22T12:36:37.677Z,1.2
2019-02-22T12:37:47.261Z,1.4
2019-02-22T12:38:56.785Z,1
2019-02-22T12:40:06.300Z,1.2
2019-02-22T12:41:15.839Z,1.7
2019-02-22T12:42:25.354Z,1.2
2019-02-22T12:43:34.878Z,1.5
2019-02-22T12:44:44.386Z,1.2
2019-02-22T12:45:53.912Z,1.5
2019-02-22T12:47:03.432Z,1.5
2019-02-22T12:48:12.945Z,1.2
2019-02-22T12:49:22.519Z,1.4
2019-02-22T12:50:32.053Z,1.2
2019-02-22T12:51:41.536Z,1.5
2019-02-22T12:52:51.054Z,1.2
2019-02-22T12:54:00.575Z,1.2
2019-02-22T12:55:10.082Z,1.7
2019-02-22T12:56:21.507Z,1
2019-02-22T12:57:30.104Z,1.3
2019-02-22T12:58:39.624Z,1.3
2019-02-22T12:59:49.120Z,0.8
2019-02-22T13:00:58.621Z,1.6
2019-02-22T13:02:08.140Z,1.3
2019-02-22T13:03:17.647Z,1.6
2019-02-22T13:04:27.172Z,1.6
2019-02-22T13:05:36.684Z,1.1
2019-02-22T13:06:46.240Z,1.6
2019-02-22T13:07:55.739Z,1
2019-02-22T13:09:05.282Z,1.4
2019-02-22T13:10:14.819Z,1.2
2019-02-22T13:11:24.328Z,0.9
2019-02-22T13:12:33.899Z,1.4
2019-02-22T13:13:43.431Z,1.3
2019-02-22T13:14:52.931Z,1.3
2019-02-22T13:16:02.437Z,1.2
2019-02-22T13:17:11.951Z,1.5
2019-02-22T13:18:21.478Z,1.5
2019-02-22T13:19:30.999Z,1.5
2019-02-22T13:20:40.514Z,1.7
2019-02-22T13:21:50.024Z,1.5
2019-02-22T13:22:59.683Z,1.3
2019-02-22T13:24:09.059Z,1.5
2019-02-22T13:25:18.573Z,1.5
2019-02-22T13:26:28.074Z,1.1
2019-02-22T13:27:37.592Z,1.4
2019-02-22T13:28:47.116Z,1.3
2019-02-22T13:29:56.624Z,0.9
2019-02-22T13:31:06.131Z,1
2019-02-22T13:32:15.693Z,1.4
2019-02-22T13:33:25.195Z,1.1
2019-02-22T13:34:34.719Z,1.1
2019-02-22T13:35:44.249Z,0.9
2019-02-22T13:36:53.759Z,1.1
2019-02-22T13:38:03.264Z,0.8
2019-02-22T13:39:12.789Z,1.5
2019-02-22T13:40:22.381Z,1.3
2019-02-22T13:41:31.806Z,0.9
2019-02-22T13:42:41.313Z,1.2
2019-02-22T13:43:50.838Z,1.4
2019-02-22T13:45:00.365Z,1.1
2019-02-22T13:46:09.896Z,0.9
2019-02-22T13:47:19.407Z,1.1
2019-02-22T13:48:28.921Z,1.1
2019-02-22T13:49:38.440Z,1.3
2019-02-22T13:50:48.068Z,1.3
2019-02-22T13:51:57.453Z,1.4
2019-02-22T13:53:07.035Z,1.1
2019-02-22T13:54:16.590Z,1.2
2019-02-22T13:55:26.099Z,1.1
2019-02-22T13:56:35.601Z,1.3
2019-02-22T13:57:45.109Z,1.2
2019-02-22T13:58:54.640Z,1.5
2019-02-22T14:00:04.165Z,0.9
2019-02-22T14:01:13.671Z,1.5
2019-02-22T14:02:23.182Z,1.3
2019-02-22T14:03:32.704Z,0.8
2019-02-22T14:04:42.234Z,1.3
2019-02-22T14:05:51.755Z,1.3
2019-02-22T14:07:01.268Z,1
2019-02-22T14:08:10.778Z,1.5
2019-02-22T14:09:20.451Z,1.3
2019-02-22T14:10:30.430Z,1.2
2019-02-22T14:11:39.936Z,0.9
2019-02-22T14:12:49.466Z,1.2
2019-02-22T14:13:59.034Z,1
2019-02-22T14:15:08.552Z,1.4
2019-02-22T14:16:18.077Z,1.3
2019-02-22T14:17:27.584Z,1.2
2019-02-22T14:18:37.100Z,1.2
2019-02-22T14:19:46.646Z,0.9
2019-02-22T14:20:56.181Z,0.7
2019-02-22T14:22:05.706Z,1
2019-02-22T14:23:15.222Z,1.2
2019-02-22T14:24:24.747Z,1.1
2019-02-22T14:25:34.311Z,0.9
2019-02-22T14:26:43.816Z,1.2
2019-02-22T14:27:53.321Z,0.7
2019-02-22T14:29:02.879Z,1.1
2019-02-22T14:30:12.397Z,1.1
2019-02-22T14:31:21.928Z,1.3
2019-02-22T14:32:31.455Z,1.2
2019-02-22T14:33:40.972Z,1.2
2019-02-22T14:34:50.523Z,1
2019-02-22T14:36:00.045Z,1.8
2019-02-22T14:37:09.617Z,0.9
2019-02-22T14:38:19.129Z,1.1
2019-02-22T14:39:28.678Z,0.7
2019-02-22T14:40:38.205Z,1
2019-02-22T14:41:48.082Z,1.1
2019-02-22T14:42:57.288Z,1
2019-02-22T14:44:06.887Z,0.9
2019-02-22T14:45:16.446Z,0.7
2019-02-22T14:46:26.300Z,0.9
2019-02-22T14:47:35.453Z,0.7
2019-02-22T14:48:44.981Z,0.7
2019-02-22T14:49:54.523Z,0.8
2019-02-22T14:51:04.049Z,1
2019-02-22T14:52:13.571Z,1.1
2019-02-22T14:53:23.105Z,1
2019-02-22T14:54:32.660Z,1
2019-02-22T14:55:42.175Z,1.2
2019-02-22T14:56:51.704Z,1.2
2019-02-22T14:58:01.238Z,0.8
2019-02-22T14:59:10.817Z,0.8
2019-02-22T15:00:20.332Z,0.9
2019-02-22T15:01:29.857Z,0.7
2019-02-22T15:02:39.366Z,0.7
2019-02-22T15:03:48.882Z,1
2019-02-22T15:04:58.427Z,1.3
2019-02-22T15:06:07.956Z,0.8
2019-02-22T15:07:17.477Z,1.2
2019-02-22T15:08:26.991Z,1
2019-02-22T15:09:36.539Z,0.9
2019-02-22T15:10:46.064Z,0.9
2019-02-22T15:11:55.598Z,1.2
2019-02-22T15:13:05.142Z,0.8
2019-02-22T15:14:14.721Z,0.9
2019-02-22T15:15:24.260Z,0.7
2019-02-22T15:16:33.772Z,1.2
2019-02-22T15:17:44.278Z,0.8
2019-02-22T15:18:53.789Z,1.2
2019-02-22T15:20:03.327Z,0.8
2019-02-22T15:21:12.826Z,1.5
2019-02-22T15:22:22.338Z,0.9
2019-02-22T15:23:31.856Z,0.9
2019-02-22T15:24:41.426Z,1
2019-02-22T15:25:50.923Z,0.9
2019-02-22T15:27:00.422Z,1
2019-02-22T15:28:09.929Z,0.6
2019-02-22T15:29:19.475Z,0.9
2019-02-22T15:30:29.004Z,1.2
2019-02-22T15:31:38.482Z,0.9
2019-02-22T15:32:47.992Z,0.9
2019-02-22T15:33:57.490Z,0.7
2019-02-22T15:35:07.029Z,0.9
2019-02-22T15:36:16.537Z,1
2019-02-22T15:37:26.053Z,0.9
2019-02-22T15:38:35.552Z,0.8
2019-02-22T15:39:45.081Z,0.5
2019-02-22T15:40:54.601Z,0.6
2019-02-22T15:42:04.079Z,1
2019-02-22T15:43:13.596Z,1.1
2019-02-22T15:44:23.149Z,1.3
2019-02-22T15:45:32.659Z,0.9
2019-02-22T15:46:42.133Z,0.8
2019-02-22T15:47:51.632Z,1.1
2019-02-22T15:49:01.159Z,0.7
2019-02-22T15:50:10.674Z,1.3
2019-02-22T15:51:20.173Z,0.8
2019-02-22T15:52:29.683Z,0.7
2019-02-22T15:53:39.189Z,0.9
2019-02-22T15:54:48.740Z,1
2019-02-22T15:55:58.451Z,1
2019-02-22T15:57:07.993Z,0.9
2019-02-22T15:58:17.633Z,1
2019-02-22T15:59:27.162Z,1
2019-02-22T16:00:36.717Z,1
2019-02-22T16:01:54.708Z,1.2
2019-02-22T16:02:56.717Z,0.8
2019-02-22T16:04:06.249Z,0.7
2019-02-22T16:05:15.795Z,0.8
2019-02-22T16:06:25.304Z,1.1
2019-02-22T16:07:44.150Z,0.8